Fédération internationale de Ski
Member Section
Print

OFFICIAL RESULTS

Hemsedal (NOR) 15.12.2016

FIS - Men's Giant Slalom OFFICIAL RESULTS

Race codex : 1021
Valid for FIS Points : YES
1 files available



Jury
TD FIS WEISS CHRISTER SWE
Referee Ola Masdal NOR
Chief of Race Tyler Conrad USA
Technical Data
Start Altitude 1055 m.
Finish Altitude 685 m.
Vertical Drop 370 m.
Homologation Number 9911/12/10
Run 1
Course Setter Magnus Larsson SWE
Number of Gates 54
Turning Gates 51
Start Time 1115
Run 2
Course Setter Hallgeir Vognild NOR
Number of Gates 50
Turning Gates 47
Start Time 1500
 
Show more info»

Competitors

Rank Bib FIS Code Name Year Nation Run 1 Run 2 Total Time Diff. FIS Points
 1  13  422483 THORSEN Alexander Sannes  1996  NOR   1:13.21  1:11.05  2:24.26     17.23
 2  11  422444 WINDINGSTAD Tobias  1995  NOR   1:13.72  1:11.39  2:25.11  +0.85  23.00
 3  5  422461 SOLHEIM Aage  1996  NOR   1:13.73  1:11.54  2:25.27  +1.01  24.09
 4  10  422359 VEISTEN Patrick Haugen  1994  NOR   1:14.18  1:11.25  2:25.43  +1.17  25.18
 5  14  422546 LINDSTOEL Joachim Jagge  1997  NOR   1:14.22  1:11.79  2:26.01  +1.75  29.12
 6  28  422626 THORSBY Henrik  1998  NOR   1:14.12  1:12.55  2:26.67  +2.41  33.60
 7  15  422670 VOELLO Gustav Rosberg  1999  NOR   1:14.84  1:11.95  2:26.79  +2.53  34.42
 8  35  422610 KNUDSEN Herman Rognes  1998  NOR   1:14.77  1:12.08  2:26.85  +2.59  34.82
 9  1  380341 ULLRICH Max  1994  CRO   1:14.91  1:12.15  2:27.06  +2.80  36.25
 10  45  422694 WAVOLD Oskar Emil  1999  NOR   1:15.26  1:11.84  2:27.10  +2.84  36.52
 11  21  422582 LIEN Joachim Bakken  1997  NOR   1:15.16  1:12.12  2:27.28  +3.02  37.75
 12  27  422523 SOERBY Erik Malmborg  1996  NOR   1:15.53  1:11.95  2:27.48  +3.22  39.10
 12  7  422391 MAALOEY Espen  1995  NOR   1:15.81  1:11.67  2:27.48  +3.22  39.10
 14  31  550086 GEDRA Zaks  1998  LAT   1:15.62  1:11.94  2:27.56  +3.30  39.65
 14  8  180839 PIIRAINEN Joona  1998  FIN   1:15.68  1:11.88  2:27.56  +3.30  39.65
 16  38  422477 LODDEN Andreas  1996  NOR   1:15.64  1:12.10  2:27.74  +3.48  40.87
 17  9  422558 SANDERBERG Olav Engelhardt  1997  NOR   1:15.83  1:11.94  2:27.77  +3.51  41.07
 18  82  422647 HAUNE Mathias Sundal  1998  NOR   1:15.54  1:12.27  2:27.81  +3.55  41.35
 19  58  422585 ALFREDSEN Andreas  1997  NOR   1:15.48  1:12.41  2:27.89  +3.63  41.89
 20  23  422397 BAARDSETH Jeppe  1995  NOR   1:16.16  1:12.01  2:28.17  +3.91  43.79
 21  52  180864 TORVINEN Turo  2000  FIN   1:15.37  1:13.09  2:28.46  +4.20  45.76
 22  56  422550 GULDSETH Sander Karlsen  1997  NOR   1:15.65  1:13.02  2:28.67  +4.41  47.19
 22  18  422630 BREIVIK Odin Vassbotn  1998  NOR   1:16.11  1:12.56  2:28.67  +4.41  47.19
 24  30  422598 KUFAAS Simen  1997  NOR   1:15.73  1:13.03  2:28.76  +4.50  47.80
 25  44  422634 NORUM Elias  1998  NOR   1:16.21  1:12.64  2:28.85  +4.59  48.41
 26  41  422637 SOLBAKKEN Marius  1998  NOR   1:16.09  1:12.77  2:28.86  +4.60  48.48
 27  40  170159 VORRE Marcus  1998  DEN   1:16.44  1:12.71  2:29.15  +4.89  50.45
 28  80  422677 MJELDE Joachim  1999  NOR   1:15.92  1:13.28  2:29.20  +4.94  50.79
 29  79  422722 KINDEM Kaspar  2000  NOR   1:16.38  1:12.86  2:29.24  +4.98  51.06
 30  108  422732 MCGRATH Atle Lie  2000  NOR   1:16.46  1:13.01  2:29.47  +5.21  52.62
 31  77  502340 HAGBERG Johan  1999  SWE   1:16.57  1:13.05  2:29.62  +5.36  53.64
 32  72  422648 RUUD Mats  1998  NOR   1:16.34  1:13.36  2:29.70  +5.44  54.19
 33  25  422654 SOLBAKKEN Mikkel  1999  NOR   1:16.30  1:13.46  2:29.76  +5.50  54.59
 34  26  502064 HEDENBERG Wilhelm  1995  SWE   1:16.37  1:13.44  2:29.81  +5.55  54.93
 35  54  422562 EVJEN Haakon  1997  NOR   1:16.91  1:13.11  2:30.02  +5.76  56.36
 36  50  422563 FALKSETE Esten Riise  1997  NOR   1:16.24  1:13.84  2:30.08  +5.82  56.77
 37  68  422729 BRAATHEN Lucas  2000  NOR   1:16.89  1:13.24  2:30.13  +5.87  57.11
 38  20  422422 MUNKEJORD Henrik Fjeldavlie  1995  NOR   1:16.80  1:13.45  2:30.25  +5.99  57.92
 39  74  502318 NILSSON Edvin  1999  SWE   1:16.49  1:13.77  2:30.26  +6.00  57.99
 40  51  430783 HABDAS Piotr  1998  POL   1:16.64  1:13.65  2:30.29  +6.03  58.19
 41  78  422706 JOESSUND Karl-Erik  2000  NOR   1:16.37  1:13.95  2:30.32  +6.06  58.40
 42  86  422713 FAUSA Louis Gustav  2000  NOR   1:17.31  1:13.05  2:30.36  +6.10  58.67
 43  53  20432 MISSE Aria  1997  AND   1:16.67  1:13.90  2:30.57  +6.31  60.10
 44  42  502319 BRAENDHOLM Jesper  1999  SWE   1:16.47  1:14.13  2:30.60  +6.34  60.30
 45  37  422603 STAUTLAND Aidan  1998  NOR   1:17.00  1:13.75  2:30.75  +6.49  61.32
 46  66  422528 HAUGLAND Kristoffer  1996  NOR   1:17.00  1:13.85  2:30.85  +6.59  62.00
 47  36  422609 STRAND Andreas  1998  NOR   1:16.90  1:14.27  2:31.17  +6.91  64.17
 48  92  422715 JOERGENSEN Leopold  2000  NOR   1:17.00  1:14.49  2:31.49  +7.23  66.35
 49  64  422659 ANTONSEN Fredrik Lolland  1999  NOR   1:17.24  1:14.44  2:31.68  +7.42  67.64
 50  88  422665 BAKKE Jakob  1999  NOR   1:17.06  1:14.65  2:31.71  +7.45  67.84
 51  81  422655 STRAND Simen  1999  NOR   1:17.69  1:14.10  2:31.79  +7.53  68.38
 52  85  422607 HEMBRE Ivar  1998  NOR   1:17.34  1:14.48  2:31.82  +7.56  68.59
 53  102  422658 NICOLAYSEN Vetle Kieding  1999  NOR   1:17.83  1:14.11  2:31.94  +7.68  69.40
 54  39  502215 LINDBERG Malte  1997  SWE   1:17.21  1:14.84  2:32.05  +7.79  70.15
 55  33  502232 NYMAN Fabian  1997  SWE   1:17.25  1:14.86  2:32.11  +7.85  70.56
 56  60  422660 FOSHEIM Sigurd  1999  NOR   1:18.68  1:13.53  2:32.21  +7.95  71.24
 57  84  422672 STAURSET Isak  1999  NOR   1:18.22  1:14.08  2:32.30  +8.04  71.85
 58  61  430802 PYJAS Pawel  1999  POL   1:17.67  1:14.65  2:32.32  +8.06  71.98
 59  94  502344 LUNDQUIST Linus  1999  SWE   1:17.20  1:15.30  2:32.50  +8.24  73.21
 60  93  422586 ANDA Eirik  1997  NOR   1:17.89  1:14.84  2:32.73  +8.47  74.77
 61  104  422717 RIIBER Nikolai  2000  NOR   1:17.90  1:15.09  2:32.99  +8.73  76.54
 62  75  20437 PEREZ FABREGA Albert  1998  AND   1:17.75  1:15.32  2:33.07  +8.81  77.08
 63  87  20442 RIUS GIMENEZ Alex  1998  AND   1:17.95  1:15.18  2:33.13  +8.87  77.49
 64  65  422632 BYE Ludvig Stamnes  1998  NOR   1:18.03  1:15.38  2:33.41  +9.15  79.39
 65  73  422595 SKARE Lasse Andre  1997  NOR   1:18.35  1:15.16  2:33.51  +9.25  80.07
 66  119  422714 HOEL Christian Owesen  2000  NOR   1:17.84  1:15.78  2:33.62  +9.36  80.82
 67  112  422613 NILSEN Andre  1998  NOR   1:18.45  1:15.19  2:33.64  +9.38  80.95
 68  106  502291 HARDEBERG Love  1998  SWE   1:18.50  1:15.31  2:33.81  +9.55  82.11
 69  71  20453 RODRIGUEZ ELIAS Joaquim  1999  AND   1:18.25  1:15.64  2:33.89  +9.63  82.65
 70  76  20447 SUAREZ PEREZ Pol  1999  AND   1:18.33  1:16.44  2:34.77  +10.51  88.63
 71  121  422727 KVENO Eirik Ranheim  2000  NOR   1:19.51  1:15.72  2:35.23  +10.97  91.75
 72  103  422685 SELTE Christopher  1999  NOR   1:18.85  1:16.44  2:35.29  +11.03  92.16
 73  126  422730 GUNLEIKSRUD Halvor Hilde  2000  NOR   1:19.16  1:16.40  2:35.56  +11.30  93.99
 74  63  422611 CAPPELEN DAHL Johan  1998  NOR   1:18.82  1:17.20  2:36.02  +11.76  97.12
 75  128  422741 NORUM Simon  2000  NOR   1:19.77  1:16.28  2:36.05  +11.79  97.32
 76  111  422686 ESPE Martin  1999  NOR   1:19.86  1:16.22  2:36.08  +11.82  97.53
 77  127  422666 BARLAUG Aslak Lysfjord  1999  NOR   1:19.84  1:16.72  2:36.56  +12.30  100.79
 78  125  422728 SMITH Andreas Unhjem  2000  NOR   1:19.61  1:17.01  2:36.62  +12.36  101.20
 79  117  422650 BJORDAL Kristian August  1999  NOR   1:20.19  1:16.63  2:36.82  +12.56  102.55
 80  123  422718 NERSNAES Peder  2000  NOR   1:20.09  1:17.07  2:37.16  +12.90  104.86
 81  138  700967 KOSIK Tomas  2000  SVK   1:20.26  1:16.92  2:37.18  +12.92  105.00
 81  114  422641 AMUNDSEN Joar  1998  NOR   1:20.78  1:16.40  2:37.18  +12.92  105.00
 83  122  422679 NETELAND Sander  1999  NOR   1:21.57  1:16.02  2:37.59  +13.33  107.78
 84  132  700957 KATRENIC Frederik  1999  SVK   1:20.64  1:17.49  2:38.13  +13.87  111.45
 85  118  422621 KLAKEGG Nikolai  1998  NOR   1:20.63  1:18.00  2:38.63  +14.37  114.85
 86  133  502418 BERGLUND Gusten  2000  SWE   1:20.84  1:18.03  2:38.87  +14.61  116.48
 87  130  422735 STENERSEN Sivert  2000  NOR   1:21.17  1:17.78  2:38.95  +14.69  117.02
 88  131  422719 PILVIK Haakon Aadu  2000  NOR   1:21.57  1:18.31  2:39.88  +15.62  123.34
 89  135  221425 FITZGERALD Rory  2000  GBR   1:21.73  1:18.48  2:40.21  +15.95  125.58
 90  134  170166 JENSEN Christian Skov  2000  DEN   1:21.63  1:18.60  2:40.23  +15.97  125.72
 91  139  550099 LOSS Daniels  2000  LAT   1:21.98  1:19.54  2:41.52  +17.26  134.48
 92  137  170164 OKSHOLM Thor  1999  DEN   1:25.84  1:22.80  2:48.64  +24.38  182.85
 93  140  700965 KASPERKEVIC Viliam  2000  SVK   1:28.07  1:23.06  2:51.13  +26.87  199.77
Did not finish 2nd run
   136  700955 POLOMCAK Daniel  1999  SVK           
   124  422669 HANSEN Odin Mehl  1999  NOR           
   100  422662 MATHIESEN Jens-Christian  1999  NOR           
   99  422644 JOHANSEN Alexander  1998  NOR           
   97  492153 LLIBRE Ferriol  1997  ESP           
   95  502224 NYSTROEM Henrik  1997  SWE           
   70  422716 NORMANNSETH Wilhelm  2000  NOR           
   59  422629 BRATSBERG Herman  1998  NOR           
   57  502355 KARLBERG Lukas  1999  SWE           
   49  660021 DANILOCHKIN Yuri  1991  BLR           
   32  492150 TABERNERO Marc  1997  ESP           
   17  422676 FOSSLAND Markus Nordgaard  1999  NOR           
   4  422469 SOLHEIM Fabian Wilkens  1996  NOR           
Did not start 2nd run
   24  502250 HJARTARSON Odin  1997  SWE           
   22  502210 MONSEN Zack  1997  SWE           
Did not finish 1st run
   129  422574 LIE LARSEN Jacob  1997  NOR           
   116  422653 FROGNER Sander  1999  NOR           
   115  422661 LARSEN Mads  1999  NOR           
   113  422689 BERG Nikolai  1999  NOR           
   109  502301 HOLMER Ian  1998  SWE           
   107  502414 STROEM Olle  2000  SWE           
   105  502240 ENDRE Pontus  1997  SWE           
   101  502325 FONDBERG Ricki Keith richard  1999  SWE           
   98  20431 SASPLUGAS Jan  1997  AND           
   96  502228 LARSSON Maans  1997  SWE           
   91  502289 BERGKLINT-TOERNROS Oliver  1998  SWE           
   90  422604 BERGE Didrik Haugstad  1998  NOR           
   89  502336 DALMALM Gustav  1999  SWE           
   69  502299 CRONEBORG Claes  1998  SWE           
   67  422623 KROGH Constantin  1998  NOR           
   62  422697 BRAKESTAD Marius  2000  NOR           
   55  180877 LEHTO Elian  2000  FIN           
   48  502296 SEHLBERG Alexander  1998  SWE           
   47  502238 STEINWALL Filip  1997  SWE           
   46  502287 GRYM Elias  1998  SWE           
   43  502241 WEDSJOE Max  1997  SWE           
   29  422640 WEMBSTAD Jesper  1998  NOR           
   19  502207 PLATTER Filip  1997  SWE           
   12  502230 SUNDIN Olle  1997  SWE           
   6  422402 MAURSTAD Fredrik  1995  NOR           
   3  422195 BERGER Kristoffer  1993  NOR           
   2  180831 KANKKUNEN Sampo  1998  FIN           
Disqualified 1st run
   83  422622 KNUDSEN Tobias  1998  NOR           
   34  700941 KATRENIC Henrich  1998  SVK           
   16  422333 REVELSBY Sindre Breivik  1994  NOR           
Did not start 1st run
   120  422712 TOENNESSEN Rasmus  2000  NOR           
   110  492240 VILADOMS Diego  1999  ESP